sensor_id;sensor_type;location;lat;lon;timestamp;temperature;humidity
18597;DHT22;9428;50.950;6.912;2022-11-20T00:02:28;5.20;99.90
18597;DHT22;9428;50.950;6.912;2022-11-20T00:05:16;5.60;99.90
18597;DHT22;9428;50.950;6.912;2022-11-20T00:08:04;5.40;99.90
18597;DHT22;9428;50.950;6.912;2022-11-20T00:10:53;5.60;99.90
18597;DHT22;9428;50.950;6.912;2022-11-20T00:13:40;5.40;99.90
18597;DHT22;9428;50.950;6.912;2022-11-20T00:16:29;5.10;99.90
18597;DHT22;9428;50.950;6.912;2022-11-20T00:19:17;5.30;99.90
18597;DHT22;9428;50.950;6.912;2022-11-20T00:22:04;5.40;99.90
18597;DHT22;9428;50.950;6.912;2022-11-20T00:24:51;5.50;99.90
18597;DHT22;9428;50.950;6.912;2022-11-20T00:27:40;5.40;99.90
18597;DHT22;9428;50.950;6.912;2022-11-20T00:30:27;5.30;99.90
18597;DHT22;9428;50.950;6.912;2022-11-20T00:33:14;5.20;99.90
18597;DHT22;9428;50.950;6.912;2022-11-20T00:36:02;5.50;99.90
18597;DHT22;9428;50.950;6.912;2022-11-20T00:38:51;5.40;99.90
18597;DHT22;9428;50.950;6.912;2022-11-20T00:41:38;5.00;99.90
18597;DHT22;9428;50.950;6.912;2022-11-20T00:44:27;5.20;99.90
18597;DHT22;9428;50.950;6.912;2022-11-20T00:47:14;5.10;99.90
18597;DHT22;9428;50.950;6.912;2022-11-20T00:50:01;5.40;99.90
18597;DHT22;9428;50.950;6.912;2022-11-20T00:52:49;5.50;99.90
18597;DHT22;9428;50.950;6.912;2022-11-20T00:55:36;5.40;99.90
18597;DHT22;9428;50.950;6.912;2022-11-20T00:58:24;5.20;99.90
18597;DHT22;9428;50.950;6.912;2022-11-20T01:01:15;5.40;99.90
18597;DHT22;9428;50.950;6.912;2022-11-20T01:04:03;5.20;99.90
18597;DHT22;9428;50.950;6.912;2022-11-20T01:06:50;5.40;99.90
18597;DHT22;9428;50.950;6.912;2022-11-20T01:09:37;5.50;99.90
18597;DHT22;9428;50.950;6.912;2022-11-20T01:12:25;5.50;99.90
18597;DHT22;9428;50.950;6.912;2022-11-20T01:15:12;5.20;99.90
18597;DHT22;9428;50.950;6.912;2022-11-20T01:18:00;5.30;99.90
18597;DHT22;9428;50.950;6.912;2022-11-20T01:20:48;5.40;99.90
18597;DHT22;9428;50.950;6.912;2022-11-20T01:23:37;5.20;99.90
18597;DHT22;9428;50.950;6.912;2022-11-20T01:26:26;5.20;99.90
18597;DHT22;9428;50.950;6.912;2022-11-20T01:29:16;5.60;99.90
18597;DHT22;9428;50.950;6.912;2022-11-20T01:32:04;5.40;99.90
18597;DHT22;9428;50.950;6.912;2022-11-20T01:34:52;5.40;99.90
18597;DHT22;9428;50.950;6.912;2022-11-20T01:37:39;5.50;99.90
18597;DHT22;9428;50.950;6.912;2022-11-20T01:40:27;5.70;99.90
18597;DHT22;9428;50.950;6.912;2022-11-20T01:43:17;5.50;99.90
18597;DHT22;9428;50.950;6.912;2022-11-20T01:46:16;5.60;99.90
18597;DHT22;9428;50.950;6.912;2022-11-20T01:49:05;5.80;99.90
18597;DHT22;9428;50.950;6.912;2022-11-20T01:51:59;5.70;99.90
18597;DHT22;9428;50.950;6.912;2022-11-20T01:54:50;5.60;99.90
18597;DHT22;9428;50.950;6.912;2022-11-20T01:57:39;5.50;99.90
18597;DHT22;9428;50.950;6.912;2022-11-20T02:00:26;5.60;99.90
18597;DHT22;9428;50.950;6.912;2022-11-20T02:03:16;5.40;99.90
18597;DHT22;9428;50.950;6.912;2022-11-20T02:06:07;5.40;99.90
18597;DHT22;9428;50.950;6.912;2022-11-20T02:08:58;5.20;99.90
18597;DHT22;9428;50.950;6.912;2022-11-20T02:11:45;5.40;99.90
18597;DHT22;9428;50.950;6.912;2022-11-20T02:14:32;5.50;99.90
18597;DHT22;9428;50.950;6.912;2022-11-20T02:17:18;5.40;99.90
18597;DHT22;9428;50.950;6.912;2022-11-20T02:20:07;5.50;99.90
18597;DHT22;9428;50.950;6.912;2022-11-20T02:22:57;5.60;99.90
18597;DHT22;9428;50.950;6.912;2022-11-20T02:25:48;5.70;99.90
18597;DHT22;9428;50.950;6.912;2022-11-20T02:28:36;5.60;99.90
18597;DHT22;9428;50.950;6.912;2022-11-20T02:31:24;5.70;99.90
18597;DHT22;9428;50.950;6.912;2022-11-20T02:34:11;5.60;99.90
18597;DHT22;9428;50.950;6.912;2022-11-20T02:36:59;5.50;99.90
18597;DHT22;9428;50.950;6.912;2022-11-20T02:39:48;5.50;99.90
18597;DHT22;9428;50.950;6.912;2022-11-20T02:42:37;5.90;99.90
18597;DHT22;9428;50.950;6.912;2022-11-20T02:45:24;5.60;99.90
18597;DHT22;9428;50.950;6.912;2022-11-20T02:48:12;6.30;99.90
18597;DHT22;9428;50.950;6.912;2022-11-20T02:50:59;5.40;99.90
18597;DHT22;9428;50.950;6.912;2022-11-20T02:53:46;5.20;99.90
18597;DHT22;9428;50.950;6.912;2022-11-20T02:56:33;5.40;99.90
18597;DHT22;9428;50.950;6.912;2022-11-20T02:59:22;5.60;99.90
18597;DHT22;9428;50.950;6.912;2022-11-20T03:02:09;5.30;99.90
18597;DHT22;9428;50.950;6.912;2022-11-20T03:04:57;5.30;99.90
18597;DHT22;9428;50.950;6.912;2022-11-20T03:07:44;5.40;99.90
18597;DHT22;9428;50.950;6.912;2022-11-20T03:10:31;5.90;99.90
18597;DHT22;9428;50.950;6.912;2022-11-20T03:13:19;5.70;99.90
18597;DHT22;9428;50.950;6.912;2022-11-20T03:16:12;5.50;99.90
18597;DHT22;9428;50.950;6.912;2022-11-20T03:19:00;5.40;99.90
18597;DHT22;9428;50.950;6.912;2022-11-20T03:21:47;5.40;99.90
18597;DHT22;9428;50.950;6.912;2022-11-20T03:24:35;5.70;99.90
18597;DHT22;9428;50.950;6.912;2022-11-20T03:27:22;5.90;99.90
18597;DHT22;9428;50.950;6.912;2022-11-20T03:30:10;5.40;99.90
18597;DHT22;9428;50.950;6.912;2022-11-20T03:32:58;5.40;99.90
18597;DHT22;9428;50.950;6.912;2022-11-20T03:35:46;5.40;99.90
18597;DHT22;9428;50.950;6.912;2022-11-20T03:38:33;5.50;99.90
18597;DHT22;9428;50.950;6.912;2022-11-20T03:41:22;5.40;99.90
18597;DHT22;9428;50.950;6.912;2022-11-20T03:44:10;5.90;99.90
18597;DHT22;9428;50.950;6.912;2022-11-20T03:46:57;6.10;99.90
18597;DHT22;9428;50.950;6.912;2022-11-20T03:49:46;5.50;99.90
18597;DHT22;9428;50.950;6.912;2022-11-20T03:52:33;6.10;99.90
18597;DHT22;9428;50.950;6.912;2022-11-20T03:55:20;5.40;99.90
18597;DHT22;9428;50.950;6.912;2022-11-20T03:58:08;5.40;99.90
18597;DHT22;9428;50.950;6.912;2022-11-20T04:00:55;5.60;99.90
18597;DHT22;9428;50.950;6.912;2022-11-20T04:03:43;5.50;99.90
18597;DHT22;9428;50.950;6.912;2022-11-20T04:06:34;5.40;99.90
18597;DHT22;9428;50.950;6.912;2022-11-20T04:09:22;5.60;99.90
18597;DHT22;9428;50.950;6.912;2022-11-20T04:12:10;5.30;99.90
18597;DHT22;9428;50.950;6.912;2022-11-20T04:14:57;5.80;99.90
18597;DHT22;9428;50.950;6.912;2022-11-20T04:17:44;5.50;99.90
18597;DHT22;9428;50.950;6.912;2022-11-20T04:20:31;5.30;99.90
18597;DHT22;9428;50.950;6.912;2022-11-20T04:23:20;5.30;99.90
18597;DHT22;9428;50.950;6.912;2022-11-20T04:26:08;5.30;99.90
18597;DHT22;9428;50.950;6.912;2022-11-20T04:28:56;5.70;99.90
18597;DHT22;9428;50.950;6.912;2022-11-20T04:31:44;5.70;99.90
18597;DHT22;9428;50.950;6.912;2022-11-20T04:34:31;5.30;99.90
18597;DHT22;9428;50.950;6.912;2022-11-20T04:37:18;5.30;99.90
18597;DHT22;9428;50.950;6.912;2022-11-20T04:40:08;5.20;99.90
18597;DHT22;9428;50.950;6.912;2022-11-20T04:42:55;5.30;99.90
18597;DHT22;9428;50.950;6.912;2022-11-20T04:45:43;5.70;99.90
18597;DHT22;9428;50.950;6.912;2022-11-20T04:48:30;5.30;99.90
18597;DHT22;9428;50.950;6.912;2022-11-20T04:51:17;5.60;99.90
18597;DHT22;9428;50.950;6.912;2022-11-20T04:54:04;5.30;99.90
18597;DHT22;9428;50.950;6.912;2022-11-20T04:56:53;5.20;99.90
18597;DHT22;9428;50.950;6.912;2022-11-20T04:59:41;5.20;99.90
18597;DHT22;9428;50.950;6.912;2022-11-20T05:02:28;5.40;99.90
18597;DHT22;9428;50.950;6.912;2022-11-20T05:05:17;5.70;99.90
18597;DHT22;9428;50.950;6.912;2022-11-20T05:08:05;5.30;99.90
18597;DHT22;9428;50.950;6.912;2022-11-20T05:10:52;5.30;99.90
18597;DHT22;9428;50.950;6.912;2022-11-20T05:13:41;5.50;99.90
18597;DHT22;9428;50.950;6.912;2022-11-20T05:16:28;5.30;99.90
18597;DHT22;9428;50.950;6.912;2022-11-20T05:19:15;5.50;99.90
18597;DHT22;9428;50.950;6.912;2022-11-20T05:22:04;5.10;99.90
18597;DHT22;9428;50.950;6.912;2022-11-20T05:24:51;5.50;99.90
18597;DHT22;9428;50.950;6.912;2022-11-20T05:27:38;5.60;99.90
18597;DHT22;9428;50.950;6.912;2022-11-20T05:30:27;5.40;99.90
18597;DHT22;9428;50.950;6.912;2022-11-20T05:33:15;5.40;99.90
18597;DHT22;9428;50.950;6.912;2022-11-20T05:36:03;5.70;99.90
18597;DHT22;9428;50.950;6.912;2022-11-20T05:38:50;5.50;99.90
18597;DHT22;9428;50.950;6.912;2022-11-20T05:41:37;6.00;99.90
18597;DHT22;9428;50.950;6.912;2022-11-20T05:44:24;5.40;99.90
18597;DHT22;9428;50.950;6.912;2022-11-20T05:47:13;5.30;99.90
18597;DHT22;9428;50.950;6.912;2022-11-20T05:50:00;5.30;99.90
18597;DHT22;9428;50.950;6.912;2022-11-20T05:52:47;5.90;99.90
18597;DHT22;9428;50.950;6.912;2022-11-20T05:55:34;5.20;99.90
18597;DHT22;9428;50.950;6.912;2022-11-20T05:58:22;5.50;99.90
18597;DHT22;9428;50.950;6.912;2022-11-20T06:01:11;5.10;99.90
18597;DHT22;9428;50.950;6.912;2022-11-20T06:04:00;5.60;99.90
18597;DHT22;9428;50.950;6.912;2022-11-20T06:06:47;5.30;99.90
18597;DHT22;9428;50.950;6.912;2022-11-20T06:09:34;5.50;99.90
18597;DHT22;9428;50.950;6.912;2022-11-20T06:12:22;5.20;99.90
18597;DHT22;9428;50.950;6.912;2022-11-20T06:15:09;5.20;99.90
18597;DHT22;9428;50.950;6.912;2022-11-20T06:17:57;5.40;99.90
18597;DHT22;9428;50.950;6.912;2022-11-20T06:20:46;5.70;99.90
18597;DHT22;9428;50.950;6.912;2022-11-20T06:23:34;5.40;99.90
18597;DHT22;9428;50.950;6.912;2022-11-20T06:26:23;5.40;99.90
18597;DHT22;9428;50.950;6.912;2022-11-20T06:29:11;5.30;99.90
18597;DHT22;9428;50.950;6.912;2022-11-20T06:31:58;5.60;99.90
18597;DHT22;9428;50.950;6.912;2022-11-20T06:34:46;5.40;99.90
18597;DHT22;9428;50.950;6.912;2022-11-20T06:37:34;5.40;99.90
18597;DHT22;9428;50.950;6.912;2022-11-20T06:40:21;5.20;99.90
18597;DHT22;9428;50.950;6.912;2022-11-20T06:43:09;5.40;99.90
18597;DHT22;9428;50.950;6.912;2022-11-20T06:45:58;5.50;99.90
18597;DHT22;9428;50.950;6.912;2022-11-20T06:48:46;5.50;99.90
18597;DHT22;9428;50.950;6.912;2022-11-20T06:51:33;5.60;99.90
18597;DHT22;9428;50.950;6.912;2022-11-20T06:54:21;6.00;99.90
18597;DHT22;9428;50.950;6.912;2022-11-20T06:57:09;6.20;99.90
18597;DHT22;9428;50.950;6.912;2022-11-20T06:59:56;5.70;99.90
18597;DHT22;9428;50.950;6.912;2022-11-20T07:02:43;5.10;99.90
18597;DHT22;9428;50.950;6.912;2022-11-20T07:05:30;5.30;99.90
18597;DHT22;9428;50.950;6.912;2022-11-20T07:08:17;5.50;99.90
18597;DHT22;9428;50.950;6.912;2022-11-20T07:11:07;5.20;99.90
18597;DHT22;9428;50.950;6.912;2022-11-20T07:13:56;5.10;99.90
18597;DHT22;9428;50.950;6.912;2022-11-20T07:16:43;5.10;99.90
18597;DHT22;9428;50.950;6.912;2022-11-20T07:19:30;5.40;99.90
18597;DHT22;9428;50.950;6.912;2022-11-20T07:22:17;6.10;99.90
18597;DHT22;9428;50.950;6.912;2022-11-20T07:25:08;5.60;99.90
18597;DHT22;9428;50.950;6.912;2022-11-20T07:27:58;5.70;99.90
18597;DHT22;9428;50.950;6.912;2022-11-20T07:30:49;5.60;99.90
18597;DHT22;9428;50.950;6.912;2022-11-20T07:33:39;5.70;99.90
18597;DHT22;9428;50.950;6.912;2022-11-20T07:36:26;5.50;99.90
18597;DHT22;9428;50.950;6.912;2022-11-20T07:39:14;5.50;99.90
18597;DHT22;9428;50.950;6.912;2022-11-20T07:42:01;5.70;99.90
18597;DHT22;9428;50.950;6.912;2022-11-20T07:44:49;5.70;99.90
18597;DHT22;9428;50.950;6.912;2022-11-20T07:47:37;5.80;99.90
18597;DHT22;9428;50.950;6.912;2022-11-20T07:50:24;5.80;99.90
18597;DHT22;9428;50.950;6.912;2022-11-20T07:53:11;5.60;99.90
18597;DHT22;9428;50.950;6.912;2022-11-20T07:55:59;5.70;99.90
18597;DHT22;9428;50.950;6.912;2022-11-20T07:58:47;5.70;99.90
18597;DHT22;9428;50.950;6.912;2022-11-20T08:01:35;5.80;99.90
18597;DHT22;9428;50.950;6.912;2022-11-20T08:04:23;5.80;99.90
18597;DHT22;9428;50.950;6.912;2022-11-20T08:07:11;6.10;99.90
18597;DHT22;9428;50.950;6.912;2022-11-20T08:09:58;6.00;99.90
18597;DHT22;9428;50.950;6.912;2022-11-20T08:12:47;5.90;99.90
18597;DHT22;9428;50.950;6.912;2022-11-20T08:15:52;6.00;99.90
18597;DHT22;9428;50.950;6.912;2022-11-20T08:18:40;5.90;99.90
18597;DHT22;9428;50.950;6.912;2022-11-20T08:21:28;6.20;99.90
18597;DHT22;9428;50.950;6.912;2022-11-20T08:24:15;6.40;99.90
18597;DHT22;9428;50.950;6.912;2022-11-20T08:27:02;5.90;99.90
18597;DHT22;9428;50.950;6.912;2022-11-20T08:29:50;6.00;99.90
18597;DHT22;9428;50.950;6.912;2022-11-20T08:32:37;6.10;99.90
18597;DHT22;9428;50.950;6.912;2022-11-20T08:35:25;6.20;99.90
18597;DHT22;9428;50.950;6.912;2022-11-20T08:38:13;6.10;99.90
18597;DHT22;9428;50.950;6.912;2022-11-20T08:41:02;6.00;99.90
18597;DHT22;9428;50.950;6.912;2022-11-20T08:44:08;5.90;99.90
18597;DHT22;9428;50.950;6.912;2022-11-20T08:46:55;5.90;99.90
18597;DHT22;9428;50.950;6.912;2022-11-20T08:49:42;6.00;99.90
18597;DHT22;9428;50.950;6.912;2022-11-20T08:52:31;5.90;99.90
18597;DHT22;9428;50.950;6.912;2022-11-20T08:55:18;5.90;99.90
18597;DHT22;9428;50.950;6.912;2022-11-20T08:58:06;6.30;99.90
18597;DHT22;9428;50.950;6.912;2022-11-20T09:00:54;6.00;99.90
18597;DHT22;9428;50.950;6.912;2022-11-20T09:03:41;6.00;99.90
18597;DHT22;9428;50.950;6.912;2022-11-20T09:06:28;6.20;99.90
18597;DHT22;9428;50.950;6.912;2022-11-20T09:09:17;6.10;99.90
18597;DHT22;9428;50.950;6.912;2022-11-20T09:12:04;6.00;99.90
18597;DHT22;9428;50.950;6.912;2022-11-20T09:14:51;6.10;99.90
18597;DHT22;9428;50.950;6.912;2022-11-20T09:17:38;6.20;99.90
18597;DHT22;9428;50.950;6.912;2022-11-20T09:20:26;6.20;99.90
18597;DHT22;9428;50.950;6.912;2022-11-20T09:23:14;6.00;99.90
18597;DHT22;9428;50.950;6.912;2022-11-20T09:26:04;6.00;99.90
18597;DHT22;9428;50.950;6.912;2022-11-20T09:28:51;6.20;99.90
18597;DHT22;9428;50.950;6.912;2022-11-20T09:31:39;6.20;99.90
18597;DHT22;9428;50.950;6.912;2022-11-20T09:34:26;6.90;99.90
18597;DHT22;9428;50.950;6.912;2022-11-20T09:37:13;6.20;99.90
18597;DHT22;9428;50.950;6.912;2022-11-20T09:40:01;6.20;99.90
18597;DHT22;9428;50.950;6.912;2022-11-20T09:42:54;6.40;99.90
18597;DHT22;9428;50.950;6.912;2022-11-20T09:45:54;6.50;99.90
18597;DHT22;9428;50.950;6.912;2022-11-20T09:48:52;7.00;99.90
18597;DHT22;9428;50.950;6.912;2022-11-20T09:51:49;6.30;99.90
18597;DHT22;9428;50.950;6.912;2022-11-20T09:54:40;6.30;99.90
18597;DHT22;9428;50.950;6.912;2022-11-20T09:57:34;6.40;99.90
18597;DHT22;9428;50.950;6.912;2022-11-20T10:00:23;6.50;99.90
18597;DHT22;9428;50.950;6.912;2022-11-20T10:03:14;6.40;99.90
18597;DHT22;9428;50.950;6.912;2022-11-20T10:06:05;6.60;99.90
18597;DHT22;9428;50.950;6.912;2022-11-20T10:09:14;6.50;99.90
18597;DHT22;9428;50.950;6.912;2022-11-20T10:12:12;6.50;99.90
18597;DHT22;9428;50.950;6.912;2022-11-20T10:15:12;6.50;99.90
18597;DHT22;9428;50.950;6.912;2022-11-20T10:18:21;6.70;99.90
18597;DHT22;9428;50.950;6.912;2022-11-20T10:21:18;6.50;99.90
18597;DHT22;9428;50.950;6.912;2022-11-20T10:24:44;6.60;99.90
18597;DHT22;9428;50.950;6.912;2022-11-20T10:28:10;6.60;99.90
18597;DHT22;9428;50.950;6.912;2022-11-20T10:31:01;6.50;99.90
18597;DHT22;9428;50.950;6.912;2022-11-20T10:33:52;6.40;99.90
18597;DHT22;9428;50.950;6.912;2022-11-20T10:36:44;6.60;99.90
18597;DHT22;9428;50.950;6.912;2022-11-20T10:39:36;6.60;99.90
18597;DHT22;9428;50.950;6.912;2022-11-20T10:42:31;6.60;99.90
18597;DHT22;9428;50.950;6.912;2022-11-20T10:45:34;6.70;99.90
18597;DHT22;9428;50.950;6.912;2022-11-20T10:48:24;6.70;99.90
18597;DHT22;9428;50.950;6.912;2022-11-20T10:51:21;6.50;99.90
18597;DHT22;9428;50.950;6.912;2022-11-20T10:54:20;6.50;99.90
18597;DHT22;9428;50.950;6.912;2022-11-20T10:57:19;6.50;99.90
18597;DHT22;9428;50.950;6.912;2022-11-20T11:00:10;6.60;99.90
18597;DHT22;9428;50.950;6.912;2022-11-20T11:02:58;6.60;99.90
18597;DHT22;9428;50.950;6.912;2022-11-20T11:05:51;6.50;99.90
18597;DHT22;9428;50.950;6.912;2022-11-20T11:08:43;6.50;99.90
18597;DHT22;9428;50.950;6.912;2022-11-20T11:11:32;6.60;99.90
18597;DHT22;9428;50.950;6.912;2022-11-20T11:14:20;6.70;99.90
18597;DHT22;9428;50.950;6.912;2022-11-20T11:17:23;6.60;99.90
18597;DHT22;9428;50.950;6.912;2022-11-20T11:20:16;6.50;99.90
18597;DHT22;9428;50.950;6.912;2022-11-20T11:23:04;6.70;99.90
18597;DHT22;9428;50.950;6.912;2022-11-20T11:25:58;6.80;99.90
18597;DHT22;9428;50.950;6.912;2022-11-20T11:28:53;6.80;99.90
18597;DHT22;9428;50.950;6.912;2022-11-20T11:31:41;6.60;99.90
18597;DHT22;9428;50.950;6.912;2022-11-20T11:34:28;6.80;99.90
18597;DHT22;9428;50.950;6.912;2022-11-20T11:37:18;6.60;99.90
18597;DHT22;9428;50.950;6.912;2022-11-20T11:40:10;6.80;99.90
18597;DHT22;9428;50.950;6.912;2022-11-20T11:43:02;6.80;99.90
18597;DHT22;9428;50.950;6.912;2022-11-20T11:45:53;6.70;99.90
18597;DHT22;9428;50.950;6.912;2022-11-20T11:48:40;6.70;99.90
18597;DHT22;9428;50.950;6.912;2022-11-20T11:51:32;6.80;99.90
18597;DHT22;9428;50.950;6.912;2022-11-20T11:54:24;7.10;99.90
18597;DHT22;9428;50.950;6.912;2022-11-20T11:57:17;6.80;99.90
18597;DHT22;9428;50.950;6.912;2022-11-20T12:00:11;6.90;99.90
18597;DHT22;9428;50.950;6.912;2022-11-20T12:03:05;6.80;99.90
18597;DHT22;9428;50.950;6.912;2022-11-20T12:05:58;6.90;99.90
18597;DHT22;9428;50.950;6.912;2022-11-20T12:08:49;7.00;99.90
18597;DHT22;9428;50.950;6.912;2022-11-20T12:11:43;7.00;99.90
18597;DHT22;9428;50.950;6.912;2022-11-20T12:14:35;7.00;99.90
18597;DHT22;9428;50.950;6.912;2022-11-20T12:17:25;7.00;99.90
18597;DHT22;9428;50.950;6.912;2022-11-20T12:20:13;7.00;99.90
18597;DHT22;9428;50.950;6.912;2022-11-20T12:23:06;7.00;99.90
18597;DHT22;9428;50.950;6.912;2022-11-20T12:26:02;7.00;99.90
18597;DHT22;9428;50.950;6.912;2022-11-20T12:28:59;6.90;99.90
18597;DHT22;9428;50.950;6.912;2022-11-20T12:32:06;6.90;99.90
18597;DHT22;9428;50.950;6.912;2022-11-20T12:35:15;6.90;99.90
18597;DHT22;9428;50.950;6.912;2022-11-20T12:38:23;6.80;99.90
18597;DHT22;9428;50.950;6.912;2022-11-20T12:41:22;6.90;99.90
18597;DHT22;9428;50.950;6.912;2022-11-20T12:44:39;7.00;99.90
18597;DHT22;9428;50.950;6.912;2022-11-20T12:47:59;7.10;99.90
18597;DHT22;9428;50.950;6.912;2022-11-20T12:51:05;7.10;99.90
18597;DHT22;9428;50.950;6.912;2022-11-20T12:54:11;7.20;99.90
18597;DHT22;9428;50.950;6.912;2022-11-20T12:57:10;7.20;99.90
18597;DHT22;9428;50.950;6.912;2022-11-20T13:00:09;7.30;99.90
18597;DHT22;9428;50.950;6.912;2022-11-20T13:03:09;7.30;99.90
18597;DHT22;9428;50.950;6.912;2022-11-20T13:06:11;7.30;99.90
18597;DHT22;9428;50.950;6.912;2022-11-20T13:08:59;7.60;99.90
18597;DHT22;9428;50.950;6.912;2022-11-20T13:11:53;7.30;99.90
18597;DHT22;9428;50.950;6.912;2022-11-20T13:14:50;7.30;99.90
18597;DHT22;9428;50.950;6.912;2022-11-20T13:17:41;7.30;99.90
18597;DHT22;9428;50.950;6.912;2022-11-20T13:20:31;7.30;99.90
18597;DHT22;9428;50.950;6.912;2022-11-20T13:23:25;7.00;99.90
18597;DHT22;9428;50.950;6.912;2022-11-20T13:26:16;7.80;99.90
18597;DHT22;9428;50.950;6.912;2022-11-20T13:29:10;7.90;99.90
18597;DHT22;9428;50.950;6.912;2022-11-20T13:32:06;7.30;99.90
18597;DHT22;9428;50.950;6.912;2022-11-20T13:34:55;7.30;99.90
18597;DHT22;9428;50.950;6.912;2022-11-20T13:37:42;7.40;99.90
18597;DHT22;9428;50.950;6.912;2022-11-20T13:40:31;7.30;99.90
18597;DHT22;9428;50.950;6.912;2022-11-20T13:43:23;7.70;99.90
18597;DHT22;9428;50.950;6.912;2022-11-20T13:46:13;7.30;99.90
18597;DHT22;9428;50.950;6.912;2022-11-20T13:49:07;7.20;99.90
18597;DHT22;9428;50.950;6.912;2022-11-20T13:52:08;7.20;99.90
18597;DHT22;9428;50.950;6.912;2022-11-20T13:55:15;7.30;99.90
18597;DHT22;9428;50.950;6.912;2022-11-20T13:58:22;7.30;99.90
18597;DHT22;9428;50.950;6.912;2022-11-20T14:01:15;7.40;99.90
18597;DHT22;9428;50.950;6.912;2022-11-20T14:04:07;7.40;99.90
18597;DHT22;9428;50.950;6.912;2022-11-20T14:06:55;7.30;99.90
18597;DHT22;9428;50.950;6.912;2022-11-20T14:09:50;7.30;99.90
18597;DHT22;9428;50.950;6.912;2022-11-20T14:12:38;7.50;99.90
18597;DHT22;9428;50.950;6.912;2022-11-20T14:15:29;7.30;99.90
18597;DHT22;9428;50.950;6.912;2022-11-20T14:18:21;7.30;99.90
18597;DHT22;9428;50.950;6.912;2022-11-20T14:21:09;7.30;99.90
18597;DHT22;9428;50.950;6.912;2022-11-20T14:24:04;7.30;99.90
18597;DHT22;9428;50.950;6.912;2022-11-20T14:26:51;7.30;99.90
18597;DHT22;9428;50.950;6.912;2022-11-20T14:29:39;7.30;99.90
18597;DHT22;9428;50.950;6.912;2022-11-20T14:32:29;7.40;99.90
18597;DHT22;9428;50.950;6.912;2022-11-20T14:35:21;7.40;99.90
18597;DHT22;9428;50.950;6.912;2022-11-20T14:38:12;7.40;99.90
18597;DHT22;9428;50.950;6.912;2022-11-20T14:41:06;7.50;99.90
18597;DHT22;9428;50.950;6.912;2022-11-20T14:43:56;7.40;99.90
18597;DHT22;9428;50.950;6.912;2022-11-20T14:46:44;7.30;99.90
18597;DHT22;9428;50.950;6.912;2022-11-20T14:49:33;7.30;99.90
18597;DHT22;9428;50.950;6.912;2022-11-20T14:52:21;7.30;99.90
18597;DHT22;9428;50.950;6.912;2022-11-20T14:55:14;7.30;99.90
18597;DHT22;9428;50.950;6.912;2022-11-20T14:58:21;7.30;99.90
18597;DHT22;9428;50.950;6.912;2022-11-20T15:01:12;7.30;99.90
18597;DHT22;9428;50.950;6.912;2022-11-20T15:04:04;7.30;99.90
18597;DHT22;9428;50.950;6.912;2022-11-20T15:06:55;7.40;99.90
18597;DHT22;9428;50.950;6.912;2022-11-20T15:09:43;7.30;99.90
18597;DHT22;9428;50.950;6.912;2022-11-20T15:12:30;7.30;99.90
18597;DHT22;9428;50.950;6.912;2022-11-20T15:15:21;7.30;99.90
18597;DHT22;9428;50.950;6.912;2022-11-20T15:18:11;7.30;99.90
18597;DHT22;9428;50.950;6.912;2022-11-20T15:21:03;7.60;99.90
18597;DHT22;9428;50.950;6.912;2022-11-20T15:23:52;7.40;99.90
18597;DHT22;9428;50.950;6.912;2022-11-20T15:26:39;7.20;99.90
18597;DHT22;9428;50.950;6.912;2022-11-20T15:29:27;7.30;99.90
18597;DHT22;9428;50.950;6.912;2022-11-20T15:32:15;7.50;99.90
18597;DHT22;9428;50.950;6.912;2022-11-20T15:35:02;7.10;99.90
18597;DHT22;9428;50.950;6.912;2022-11-20T15:37:49;7.10;99.90
18597;DHT22;9428;50.950;6.912;2022-11-20T15:40:38;7.20;99.90
18597;DHT22;9428;50.950;6.912;2022-11-20T15:43:25;7.20;99.90
18597;DHT22;9428;50.950;6.912;2022-11-20T15:46:15;7.10;99.90
18597;DHT22;9428;50.950;6.912;2022-11-20T15:49:03;7.10;99.90
18597;DHT22;9428;50.950;6.912;2022-11-20T15:51:51;7.00;99.90
18597;DHT22;9428;50.950;6.912;2022-11-20T15:54:39;7.10;99.90
18597;DHT22;9428;50.950;6.912;2022-11-20T15:57:28;7.10;99.90
18597;DHT22;9428;50.950;6.912;2022-11-20T16:00:16;7.20;99.90
18597;DHT22;9428;50.950;6.912;2022-11-20T16:03:03;7.20;99.90
18597;DHT22;9428;50.950;6.912;2022-11-20T16:05:50;7.20;99.90
18597;DHT22;9428;50.950;6.912;2022-11-20T16:08:38;7.20;99.90
18597;DHT22;9428;50.950;6.912;2022-11-20T16:11:25;7.20;99.90
18597;DHT22;9428;50.950;6.912;2022-11-20T16:14:14;7.40;99.90
18597;DHT22;9428;50.950;6.912;2022-11-20T16:17:18;7.20;99.90
18597;DHT22;9428;50.950;6.912;2022-11-20T16:20:26;7.20;99.90
18597;DHT22;9428;50.950;6.912;2022-11-20T16:23:13;7.30;99.90
18597;DHT22;9428;50.950;6.912;2022-11-20T16:26:09;7.20;99.90
18597;DHT22;9428;50.950;6.912;2022-11-20T16:28:57;7.40;99.90
18597;DHT22;9428;50.950;6.912;2022-11-20T16:31:46;7.40;99.90
18597;DHT22;9428;50.950;6.912;2022-11-20T16:34:33;7.30;99.90
18597;DHT22;9428;50.950;6.912;2022-11-20T16:37:21;7.40;99.90
18597;DHT22;9428;50.950;6.912;2022-11-20T16:40:09;7.90;99.90
18597;DHT22;9428;50.950;6.912;2022-11-20T16:42:57;7.40;99.90
18597;DHT22;9428;50.950;6.912;2022-11-20T16:45:44;7.40;99.90
18597;DHT22;9428;50.950;6.912;2022-11-20T16:48:32;7.40;99.90
18597;DHT22;9428;50.950;6.912;2022-11-20T16:51:20;7.40;99.90
18597;DHT22;9428;50.950;6.912;2022-11-20T16:54:08;7.40;99.90
18597;DHT22;9428;50.950;6.912;2022-11-20T16:56:56;7.50;99.90
18597;DHT22;9428;50.950;6.912;2022-11-20T16:59:43;7.40;99.90
18597;DHT22;9428;50.950;6.912;2022-11-20T17:02:30;7.40;99.90
18597;DHT22;9428;50.950;6.912;2022-11-20T17:05:19;7.40;99.90
18597;DHT22;9428;50.950;6.912;2022-11-20T17:08:06;7.40;99.90
18597;DHT22;9428;50.950;6.912;2022-11-20T17:10:53;7.40;99.90
18597;DHT22;9428;50.950;6.912;2022-11-20T17:13:41;7.40;99.90
18597;DHT22;9428;50.950;6.912;2022-11-20T17:16:29;7.40;99.90
18597;DHT22;9428;50.950;6.912;2022-11-20T17:19:16;7.40;99.90
18597;DHT22;9428;50.950;6.912;2022-11-20T17:22:05;7.60;99.90
18597;DHT22;9428;50.950;6.912;2022-11-20T17:24:52;7.40;99.90
18597;DHT22;9428;50.950;6.912;2022-11-20T17:27:39;7.30;99.90
18597;DHT22;9428;50.950;6.912;2022-11-20T17:30:26;7.30;99.90
18597;DHT22;9428;50.950;6.912;2022-11-20T17:33:14;7.30;99.90
18597;DHT22;9428;50.950;6.912;2022-11-20T17:36:01;7.30;99.90
18597;DHT22;9428;50.950;6.912;2022-11-20T17:38:50;7.40;99.90
18597;DHT22;9428;50.950;6.912;2022-11-20T17:41:38;7.40;99.90
18597;DHT22;9428;50.950;6.912;2022-11-20T17:44:25;7.30;99.90
18597;DHT22;9428;50.950;6.912;2022-11-20T17:47:13;7.40;99.90
18597;DHT22;9428;50.950;6.912;2022-11-20T17:50:01;7.70;99.90
18597;DHT22;9428;50.950;6.912;2022-11-20T17:52:48;7.30;99.90
18597;DHT22;9428;50.950;6.912;2022-11-20T17:55:36;7.30;99.90
18597;DHT22;9428;50.950;6.912;2022-11-20T17:58:41;7.30;99.90
18597;DHT22;9428;50.950;6.912;2022-11-20T18:01:28;7.30;99.90
18597;DHT22;9428;50.950;6.912;2022-11-20T18:04:16;7.30;99.90
18597;DHT22;9428;50.950;6.912;2022-11-20T18:07:03;7.30;99.90
18597;DHT22;9428;50.950;6.912;2022-11-20T18:09:51;7.30;99.90
18597;DHT22;9428;50.950;6.912;2022-11-20T18:12:39;7.30;99.90
18597;DHT22;9428;50.950;6.912;2022-11-20T18:15:27;7.40;99.90
18597;DHT22;9428;50.950;6.912;2022-11-20T18:18:14;7.40;99.90
18597;DHT22;9428;50.950;6.912;2022-11-20T18:21:02;7.40;99.90
18597;DHT22;9428;50.950;6.912;2022-11-20T18:23:49;7.60;99.90
18597;DHT22;9428;50.950;6.912;2022-11-20T18:26:37;7.90;99.90
18597;DHT22;9428;50.950;6.912;2022-11-20T18:29:26;7.40;99.90
18597;DHT22;9428;50.950;6.912;2022-11-20T18:32:13;7.50;99.90